createdAt,value
2023-09-27T00:01:36.823Z,12.75
2023-09-27T00:06:38.690Z,8.77
2023-09-27T00:11:40.810Z,7.28
2023-09-27T00:16:42.687Z,8.68
2023-09-27T00:21:44.540Z,10.40
2023-09-27T00:26:46.315Z,12.20
2023-09-27T00:31:48.275Z,11.15
2023-09-27T00:36:50.294Z,8.93
2023-09-27T00:41:52.092Z,6.38
2023-09-27T00:46:54.107Z,9.35
2023-09-27T00:51:56.133Z,9.80
2023-09-27T00:56:58.103Z,8.02
2023-09-27T01:02:00.052Z,10.93
2023-09-27T01:07:01.972Z,10.65
2023-09-27T01:12:05.752Z,9.60
2023-09-27T01:17:11.294Z,8.93
2023-09-27T01:22:13.161Z,9.88
2023-09-27T01:27:16.097Z,10.02
2023-09-27T01:32:19.199Z,8.07
2023-09-27T01:37:21.069Z,8.70
2023-09-27T01:42:22.886Z,9.85
2023-09-27T01:47:24.807Z,11.90
2023-09-27T01:52:26.598Z,8.05
2023-09-27T01:57:28.859Z,9.20
2023-09-27T02:02:30.848Z,9.77
2023-09-27T02:07:32.742Z,10.77
2023-09-27T02:12:34.609Z,7.53
2023-09-27T02:17:37.467Z,7.93
2023-09-27T02:22:41.337Z,8.88
2023-09-27T02:27:44.138Z,9.88
2023-09-27T02:32:46.794Z,11.73
2023-09-27T02:37:49.007Z,11.57
2023-09-27T02:42:51.652Z,15.73
2023-09-27T02:47:54.128Z,11.43
2023-09-27T02:52:55.967Z,13.20
2023-09-27T02:57:57.889Z,11.50
2023-09-27T03:03:01.248Z,11.85
2023-09-27T03:08:05.898Z,13.02
2023-09-27T03:13:09.291Z,10.55
2023-09-27T03:18:11.405Z,8.32
2023-09-27T03:23:13.331Z,14.45
2023-09-27T03:28:15.552Z,12.65
2023-09-27T03:33:17.551Z,13.32
2023-09-27T03:38:19.562Z,17.38
2023-09-27T03:43:21.399Z,15.63
2023-09-27T03:48:23.308Z,12.30
2023-09-27T03:53:25.309Z,12.85
2023-09-27T03:58:27.374Z,12.70
2023-09-27T04:03:29.348Z,12.93
2023-09-27T04:08:33.228Z,12.57
2023-09-27T04:13:35.456Z,9.20
2023-09-27T04:18:37.349Z,8.75
2023-09-27T04:23:39.694Z,10.73
2023-09-27T04:28:41.572Z,11.48
2023-09-27T04:33:45.614Z,9.55
2023-09-27T04:38:48.345Z,12.18
2023-09-27T04:43:50.133Z,10.85
2023-09-27T04:48:52.131Z,10.45
2023-09-27T04:53:54.213Z,53.67
2023-09-27T04:58:57.526Z,79.00
2023-09-27T05:03:59.547Z,20.17
2023-09-27T05:09:01.952Z,31.25
2023-09-27T05:14:04.369Z,34.30
2023-09-27T05:19:06.267Z,24.40
2023-09-27T05:24:08.786Z,16.50
2023-09-27T05:29:15.059Z,15.85
2023-09-27T05:34:17.022Z,11.77
2023-09-27T05:39:18.855Z,16.40
2023-09-27T05:44:20.760Z,32.58
2023-09-27T05:49:22.613Z,13.25
2023-09-27T05:54:24.877Z,41.75
2023-09-27T05:59:26.788Z,38.78
2023-09-27T06:04:28.657Z,45.65
2023-09-27T06:09:30.418Z,13.32
2023-09-27T06:14:32.792Z,13.77
2023-09-27T06:19:34.868Z,23.02
2023-09-27T06:24:36.642Z,7.47
2023-09-27T06:29:38.448Z,5.70
2023-09-27T06:34:40.697Z,9.10
2023-09-27T06:39:43.174Z,7.47
2023-09-27T06:44:44.942Z,6.03
2023-09-27T06:49:46.694Z,6.07
2023-09-27T06:54:48.456Z,4.47
2023-09-27T06:59:50.766Z,4.55
2023-09-27T07:04:52.673Z,3.30
2023-09-27T07:09:54.469Z,3.80
2023-09-27T07:14:56.238Z,4.25
2023-09-27T07:19:58.800Z,4.90
2023-09-27T07:25:02.843Z,4.13
2023-09-27T07:30:05.404Z,4.93
2023-09-27T07:35:12.253Z,4.43
2023-09-27T07:40:15.366Z,5.35
2023-09-27T07:45:23.312Z,4.70
2023-09-27T07:50:32.473Z,5.90
2023-09-27T07:55:44.282Z,4.63
2023-09-27T08:00:46.355Z,4.10
2023-09-27T08:05:50.589Z,4.28
2023-09-27T08:10:53.893Z,5.88
2023-09-27T08:15:55.677Z,3.97
2023-09-27T08:20:57.484Z,5.82
2023-09-27T08:25:59.387Z,4.25
2023-09-27T08:31:01.554Z,5.60
2023-09-27T08:36:03.719Z,5.13
2023-09-27T08:41:05.578Z,4.10
2023-09-27T08:46:08.069Z,5.47
2023-09-27T08:51:13.125Z,4.50
2023-09-27T08:56:17.687Z,4.93
2023-09-27T09:01:19.897Z,4.53
2023-09-27T09:06:22.383Z,5.03
2023-09-27T09:11:24.750Z,4.70
2023-09-27T09:16:27.186Z,5.57
2023-09-27T09:21:28.969Z,3.80
2023-09-27T09:26:31.283Z,5.80
2023-09-27T09:36:37.948Z,4.05
2023-09-27T09:41:50.609Z,4.63
2023-09-27T09:46:53.189Z,5.40
2023-09-27T09:57:08.925Z,3.90
2023-09-27T10:02:21.687Z,4.88
2023-09-27T10:07:24.319Z,6.43
2023-09-27T10:22:33.806Z,5.18
2023-09-27T10:28:07.765Z,5.07
2023-09-27T10:33:20.183Z,5.28
2023-09-27T10:38:22.144Z,5.78
2023-09-27T10:43:36.022Z,6.63
2023-09-27T10:48:38.967Z,6.00
2023-09-27T10:53:40.842Z,4.85
2023-09-27T10:58:54.602Z,6.93
2023-09-27T11:04:05.067Z,5.25
2023-09-27T11:09:13.381Z,17.17
2023-09-27T11:14:26.717Z,16.23
2023-09-27T11:19:29.900Z,6.45
2023-09-27T11:24:39.708Z,3.88
2023-09-27T11:29:41.549Z,5.75
2023-09-27T11:34:43.412Z,5.60
2023-09-27T11:39:51.200Z,8.30
2023-09-27T11:45:10.207Z,4.25
2023-09-27T11:50:12.070Z,6.70
2023-09-27T11:55:17.874Z,9.93
2023-09-27T12:00:20.340Z,12.35
2023-09-27T12:05:22.414Z,6.43
2023-09-27T12:10:24.642Z,6.63
2023-09-27T12:15:26.590Z,5.37
2023-09-27T12:20:39.387Z,5.87
2023-09-27T12:25:43.553Z,5.28
2023-09-27T12:30:45.358Z,3.22
2023-09-27T12:35:48.249Z,9.55
2023-09-27T12:40:50.130Z,5.45
2023-09-27T12:45:51.934Z,6.75
2023-09-27T12:50:53.933Z,5.03
2023-09-27T12:55:55.922Z,5.00
2023-09-27T13:00:57.808Z,4.90
2023-09-27T13:05:59.732Z,5.47
2023-09-27T13:11:02.251Z,7.90
2023-09-27T13:16:04.353Z,5.50
2023-09-27T13:21:11.150Z,7.17
2023-09-27T13:26:12.967Z,8.68
2023-09-27T13:31:14.818Z,5.18
2023-09-27T13:36:16.663Z,7.53
2023-09-27T13:41:18.706Z,7.50
2023-09-27T13:46:20.616Z,6.07
2023-09-27T13:51:22.537Z,6.70
2023-09-27T13:56:24.322Z,6.15
2023-09-27T14:01:27.220Z,14.38
2023-09-27T14:11:31.027Z,5.10
2023-09-27T14:16:32.929Z,7.85
2023-09-27T14:21:34.742Z,7.00
2023-09-27T14:26:37.624Z,4.78
2023-09-27T14:36:41.754Z,4.93
2023-09-27T14:41:45.188Z,7.17
2023-09-27T14:46:47.261Z,5.70
2023-09-27T14:51:50.854Z,7.03
2023-09-27T14:56:52.699Z,5.80
2023-09-27T15:01:58.757Z,7.47
2023-09-27T15:07:00.993Z,6.10
2023-09-27T15:12:03.051Z,8.68
2023-09-27T15:17:04.933Z,6.77
2023-09-27T15:22:06.954Z,7.47
2023-09-27T15:27:10.135Z,6.25
2023-09-27T15:32:12.036Z,6.40
2023-09-27T15:42:16.785Z,6.65
2023-09-27T15:47:18.673Z,7.32
2023-09-27T15:52:20.501Z,5.68
2023-09-27T15:57:23.271Z,9.98
2023-09-27T16:02:25.055Z,9.07
2023-09-27T16:07:27.012Z,7.57
2023-09-27T16:12:28.828Z,5.90
2023-09-27T16:17:30.978Z,7.47
2023-09-27T16:22:32.849Z,7.43
2023-09-27T16:27:35.324Z,6.47
2023-09-27T16:32:37.485Z,7.30
2023-09-27T16:37:39.853Z,6.00
2023-09-27T16:42:42.276Z,8.00
2023-09-27T16:47:44.513Z,7.30
2023-09-27T16:52:46.335Z,8.00
2023-09-27T16:57:48.172Z,10.32
2023-09-27T17:02:50.035Z,9.68
2023-09-27T17:07:51.897Z,8.20
2023-09-27T17:12:53.653Z,7.25
2023-09-27T17:17:55.466Z,6.78
2023-09-27T17:22:57.296Z,7.25
2023-09-27T17:27:59.068Z,7.18
2023-09-27T17:33:01.032Z,7.03
2023-09-27T17:38:03.629Z,9.48
2023-09-27T17:43:05.521Z,7.68
2023-09-27T17:48:07.736Z,8.20
2023-09-27T17:53:09.679Z,10.00
2023-09-27T17:58:12.268Z,8.55
2023-09-27T18:03:15.646Z,7.97
2023-09-27T18:08:17.629Z,12.68
2023-09-27T18:13:19.723Z,8.45
2023-09-27T18:18:22.806Z,9.35
2023-09-27T18:23:24.682Z,8.35
2023-09-27T18:28:26.720Z,17.10
2023-09-27T18:33:28.704Z,11.88
2023-09-27T18:38:30.636Z,13.07
2023-09-27T18:43:32.457Z,9.88
2023-09-27T18:48:34.378Z,11.30
2023-09-27T18:53:36.262Z,11.18
2023-09-27T18:58:38.171Z,12.43
2023-09-27T19:03:40.100Z,10.70
2023-09-27T19:13:00.797Z,12.68
2023-09-27T19:18:03.456Z,13.38
2023-09-27T19:23:05.381Z,10.25
2023-09-27T19:28:07.382Z,10.77
2023-09-27T19:33:10.111Z,14.40
2023-09-27T19:38:12.009Z,16.83
2023-09-27T19:43:13.792Z,10.10
2023-09-27T19:48:15.683Z,13.13
2023-09-27T19:53:17.760Z,10.40
2023-09-27T19:58:19.549Z,10.93
2023-09-27T20:03:22.106Z,8.10
2023-09-27T20:08:24.540Z,10.15
2023-09-27T20:13:26.288Z,8.57
2023-09-27T20:18:28.048Z,11.32
2023-09-27T20:23:29.843Z,11.65
2023-09-27T20:28:31.734Z,11.82
2023-09-27T20:33:33.553Z,10.60
2023-09-27T20:38:35.383Z,12.00
2023-09-27T20:43:37.222Z,11.48
2023-09-27T20:48:39.003Z,7.40
2023-09-27T20:53:40.883Z,13.45
2023-09-27T20:58:42.902Z,10.50
2023-09-27T21:03:44.875Z,9.13
2023-09-27T21:08:46.670Z,11.57
2023-09-27T21:13:48.470Z,8.57
2023-09-27T21:18:52.289Z,7.03
2023-09-27T21:23:54.663Z,9.57
2023-09-27T21:28:56.835Z,7.68
2023-09-27T21:33:58.735Z,8.32
2023-09-27T21:39:00.643Z,8.95
2023-09-27T21:44:02.598Z,9.93
2023-09-27T21:49:04.618Z,14.48
2023-09-27T21:54:06.657Z,11.48
2023-09-27T21:59:09.428Z,9.90
2023-09-27T22:04:11.291Z,12.05
2023-09-27T22:09:13.393Z,11.13
2023-09-27T22:14:15.893Z,9.35
2023-09-27T22:19:18.313Z,11.43
2023-09-27T22:24:22.413Z,11.63
2023-09-27T22:34:26.005Z,10.07
2023-09-27T22:39:31.305Z,12.15
2023-09-27T22:44:34.148Z,12.93
2023-09-27T22:49:38.068Z,11.52
2023-09-27T22:54:39.969Z,11.23
2023-09-27T22:59:41.723Z,14.50
2023-09-27T23:04:43.529Z,12.40
2023-09-27T23:09:48.137Z,12.00
2023-09-27T23:15:11.702Z,14.20
2023-09-27T23:20:14.075Z,15.85
2023-09-27T23:25:34.671Z,13.25
2023-09-27T23:30:36.504Z,11.82
2023-09-27T23:35:40.885Z,8.77
2023-09-27T23:40:43.179Z,11.63
2023-09-27T23:45:46.549Z,9.95
2023-09-27T23:50:48.552Z,10.07
2023-09-27T23:55:50.352Z,10.80
